sensor_id;sensor_type;location;lat;lon;timestamp;pressure;altitude;pressure_sealevel;temperature;humidity
64614;BME280;51025;37.772;-122.432;2022-10-16T00:01:10;100744.42;;;19.56;37.22
64614;BME280;51025;37.772;-122.432;2022-10-16T00:03:40;100742.93;;;19.43;37.35
64614;BME280;51025;37.772;-122.432;2022-10-16T00:06:10;100744.44;;;19.53;37.24
64614;BME280;51025;37.772;-122.432;2022-10-16T00:08:39;100744.53;;;19.26;37.55
64614;BME280;51025;37.772;-122.432;2022-10-16T00:11:11;100741.58;;;19.32;37.47
64614;BME280;51025;37.772;-122.432;2022-10-16T00:13:42;100744.79;;;19.43;37.38
64614;BME280;51025;37.772;-122.432;2022-10-16T00:16:12;100743.66;;;19.34;37.47
64614;BME280;51025;37.772;-122.432;2022-10-16T00:18:41;100744.09;;;19.71;37.50
64614;BME280;51025;37.772;-122.432;2022-10-16T00:21:12;100747.68;;;19.99;36.68
64614;BME280;51025;37.772;-122.432;2022-10-16T00:23:41;100749.11;;;19.47;37.35
64614;BME280;51025;37.772;-122.432;2022-10-16T00:26:11;100748.23;;;19.46;37.33
64614;BME280;51025;37.772;-122.432;2022-10-16T00:28:41;100739.28;;;19.73;37.03
64614;BME280;51025;37.772;-122.432;2022-10-16T00:31:12;100744.19;;;19.36;37.46
64614;BME280;51025;37.772;-122.432;2022-10-16T00:33:41;100734.22;;;20.08;37.06
64614;BME280;51025;37.772;-122.432;2022-10-16T00:36:12;100738.30;;;19.13;37.32
64614;BME280;51025;37.772;-122.432;2022-10-16T00:38:41;100731.96;;;20.03;37.54
64614;BME280;51025;37.772;-122.432;2022-10-16T00:41:13;100734.16;;;19.70;37.42
64614;BME280;51025;37.772;-122.432;2022-10-16T00:43:43;100728.96;;;19.22;37.52
64614;BME280;51025;37.772;-122.432;2022-10-16T00:46:17;100730.70;;;19.25;37.46
64614;BME280;51025;37.772;-122.432;2022-10-16T00:48:51;100736.22;;;19.28;37.43
64614;BME280;51025;37.772;-122.432;2022-10-16T00:51:23;100735.75;;;19.67;37.35
64614;BME280;51025;37.772;-122.432;2022-10-16T00:53:53;100739.41;;;19.34;37.32
64614;BME280;51025;37.772;-122.432;2022-10-16T00:56:23;100730.95;;;19.27;37.40
64614;BME280;51025;37.772;-122.432;2022-10-16T00:58:51;100731.04;;;19.53;37.46
64614;BME280;51025;37.772;-122.432;2022-10-16T01:01:20;100735.59;;;19.22;37.38
64614;BME280;51025;37.772;-122.432;2022-10-16T01:03:49;100742.43;;;19.22;37.38
64614;BME280;51025;37.772;-122.432;2022-10-16T01:06:23;100746.52;;;19.80;37.10
64614;BME280;51025;37.772;-122.432;2022-10-16T01:09:08;100743.15;;;19.19;37.38
64614;BME280;51025;37.772;-122.432;2022-10-16T01:11:44;100745.38;;;19.31;37.21
64614;BME280;51025;37.772;-122.432;2022-10-16T01:14:22;100746.08;;;19.41;37.08
64614;BME280;51025;37.772;-122.432;2022-10-16T01:17:00;100743.46;;;19.72;37.11
64614;BME280;51025;37.772;-122.432;2022-10-16T01:19:44;100740.15;;;19.33;37.17
64614;BME280;51025;37.772;-122.432;2022-10-16T01:22:20;100746.10;;;19.78;37.01
64614;BME280;51025;37.772;-122.432;2022-10-16T01:24:55;100745.15;;;19.28;37.15
64614;BME280;51025;37.772;-122.432;2022-10-16T01:27:28;100748.47;;;19.22;37.23
64614;BME280;51025;37.772;-122.432;2022-10-16T01:30:04;100746.45;;;19.48;36.92
64614;BME280;51025;37.772;-122.432;2022-10-16T01:32:39;100747.60;;;19.16;37.28
64614;BME280;51025;37.772;-122.432;2022-10-16T01:35:14;100749.76;;;19.05;37.39
64614;BME280;51025;37.772;-122.432;2022-10-16T01:37:49;100753.34;;;19.39;37.00
64614;BME280;51025;37.772;-122.432;2022-10-16T01:40:21;100755.84;;;19.58;37.12
64614;BME280;51025;37.772;-122.432;2022-10-16T01:42:54;100758.32;;;19.39;36.96
64614;BME280;51025;37.772;-122.432;2022-10-16T01:45:24;100756.02;;;19.27;37.06
64614;BME280;51025;37.772;-122.432;2022-10-16T01:47:53;100757.80;;;19.70;36.97
64614;BME280;51025;37.772;-122.432;2022-10-16T01:50:22;100757.48;;;19.16;37.18
64614;BME280;51025;37.772;-122.432;2022-10-16T01:52:54;100752.73;;;19.55;37.12
64614;BME280;51025;37.772;-122.432;2022-10-16T01:55:29;100754.84;;;19.58;37.11
64614;BME280;51025;37.772;-122.432;2022-10-16T01:58:00;100762.41;;;19.16;37.14
64614;BME280;51025;37.772;-122.432;2022-10-16T02:00:30;100762.25;;;19.82;37.27
64614;BME280;51025;37.772;-122.432;2022-10-16T02:03:00;100763.41;;;19.45;36.82
64614;BME280;51025;37.772;-122.432;2022-10-16T02:05:32;100761.13;;;19.41;37.25
64614;BME280;51025;37.772;-122.432;2022-10-16T02:08:02;100764.53;;;19.07;37.20
64614;BME280;51025;37.772;-122.432;2022-10-16T02:10:31;100760.41;;;19.15;37.12
64614;BME280;51025;37.772;-122.432;2022-10-16T02:13:05;100761.99;;;19.47;37.14
64614;BME280;51025;37.772;-122.432;2022-10-16T02:15:34;100761.10;;;19.14;37.10
64614;BME280;51025;37.772;-122.432;2022-10-16T02:18:02;100761.06;;;19.46;37.13
64614;BME280;51025;37.772;-122.432;2022-10-16T02:20:36;100764.35;;;19.64;36.92
64614;BME280;51025;37.772;-122.432;2022-10-16T02:23:12;100765.00;;;19.49;36.69
64614;BME280;51025;37.772;-122.432;2022-10-16T02:25:45;100769.60;;;19.72;36.80
64614;BME280;51025;37.772;-122.432;2022-10-16T02:28:18;100769.24;;;19.79;36.71
64614;BME280;51025;37.772;-122.432;2022-10-16T02:30:50;100771.19;;;19.14;37.08
64614;BME280;51025;37.772;-122.432;2022-10-16T02:33:20;100778.48;;;19.14;37.01
64614;BME280;51025;37.772;-122.432;2022-10-16T02:35:51;100782.22;;;19.79;36.67
64614;BME280;51025;37.772;-122.432;2022-10-16T02:38:22;100778.63;;;19.38;36.71
64614;BME280;51025;37.772;-122.432;2022-10-16T02:40:51;100779.25;;;19.69;36.76
64614;BME280;51025;37.772;-122.432;2022-10-16T02:43:20;100782.47;;;19.64;36.39
64614;BME280;51025;37.772;-122.432;2022-10-16T02:45:49;100786.21;;;19.85;36.57
64614;BME280;51025;37.772;-122.432;2022-10-16T02:48:17;100782.78;;;19.25;36.82
64614;BME280;51025;37.772;-122.432;2022-10-16T02:50:46;100782.42;;;19.76;36.64
64614;BME280;51025;37.772;-122.432;2022-10-16T02:53:14;100784.57;;;19.15;36.94
64614;BME280;51025;37.772;-122.432;2022-10-16T02:55:42;100783.90;;;19.72;36.69
64614;BME280;51025;37.772;-122.432;2022-10-16T02:58:10;100784.24;;;19.28;36.83
64614;BME280;51025;37.772;-122.432;2022-10-16T03:00:38;100780.22;;;19.90;36.51
64614;BME280;51025;37.772;-122.432;2022-10-16T03:03:07;100781.78;;;19.69;36.80
64614;BME280;51025;37.772;-122.432;2022-10-16T03:05:36;100783.26;;;19.60;36.62
64614;BME280;51025;37.772;-122.432;2022-10-16T03:08:04;100784.85;;;19.36;36.87
64614;BME280;51025;37.772;-122.432;2022-10-16T03:10:32;100792.18;;;19.65;36.89
64614;BME280;51025;37.772;-122.432;2022-10-16T03:13:02;100787.81;;;19.79;36.32
64614;BME280;51025;37.772;-122.432;2022-10-16T03:15:30;100792.69;;;20.07;36.44
64614;BME280;51025;37.772;-122.432;2022-10-16T03:17:59;100795.26;;;19.93;36.86
64614;BME280;51025;37.772;-122.432;2022-10-16T03:20:27;100796.23;;;19.86;37.12
64614;BME280;51025;37.772;-122.432;2022-10-16T03:22:56;100796.16;;;19.61;37.11
64614;BME280;51025;37.772;-122.432;2022-10-16T03:25:25;100799.58;;;20.13;36.74
64614;BME280;51025;37.772;-122.432;2022-10-16T03:27:53;100796.92;;;19.95;37.03
64614;BME280;51025;37.772;-122.432;2022-10-16T03:30:22;100798.84;;;19.40;37.37
64614;BME280;51025;37.772;-122.432;2022-10-16T03:32:50;100801.23;;;19.43;37.36
64614;BME280;51025;37.772;-122.432;2022-10-16T03:35:19;100798.39;;;19.47;37.44
64614;BME280;51025;37.772;-122.432;2022-10-16T03:37:48;100798.28;;;19.89;37.39
64614;BME280;51025;37.772;-122.432;2022-10-16T03:40:17;100796.71;;;19.90;37.62
64614;BME280;51025;37.772;-122.432;2022-10-16T03:42:46;100796.03;;;19.64;37.91
64614;BME280;51025;37.772;-122.432;2022-10-16T03:45:14;100796.18;;;19.72;38.19
64614;BME280;51025;37.772;-122.432;2022-10-16T03:47:43;100796.14;;;19.70;38.55
64614;BME280;51025;37.772;-122.432;2022-10-16T03:50:11;100797.38;;;19.84;38.43
64614;BME280;51025;37.772;-122.432;2022-10-16T03:52:39;100805.60;;;19.97;38.66
64614;BME280;51025;37.772;-122.432;2022-10-16T03:55:08;100803.40;;;19.78;38.91
64614;BME280;51025;37.772;-122.432;2022-10-16T03:57:36;100805.64;;;19.66;38.74
64614;BME280;51025;37.772;-122.432;2022-10-16T04:00:05;100803.00;;;20.04;38.78
64614;BME280;51025;37.772;-122.432;2022-10-16T04:02:34;100803.06;;;19.90;38.77
64614;BME280;51025;37.772;-122.432;2022-10-16T04:05:03;100807.55;;;19.97;38.83
64614;BME280;51025;37.772;-122.432;2022-10-16T04:07:31;100806.22;;;19.68;39.03
64614;BME280;51025;37.772;-122.432;2022-10-16T04:09:59;100807.06;;;19.59;38.54
64614;BME280;51025;37.772;-122.432;2022-10-16T04:12:28;100806.75;;;19.79;38.83
64614;BME280;51025;37.772;-122.432;2022-10-16T04:14:56;100811.89;;;19.82;38.83
64614;BME280;51025;37.772;-122.432;2022-10-16T04:17:25;100810.09;;;19.93;38.72
64614;BME280;51025;37.772;-122.432;2022-10-16T04:19:54;100812.11;;;19.97;38.61
64614;BME280;51025;37.772;-122.432;2022-10-16T04:22:22;100816.01;;;19.90;38.54
64614;BME280;51025;37.772;-122.432;2022-10-16T04:24:51;100818.31;;;19.61;38.43
64614;BME280;51025;37.772;-122.432;2022-10-16T04:27:19;100817.37;;;19.87;38.54
64614;BME280;51025;37.772;-122.432;2022-10-16T04:29:48;100814.73;;;19.96;38.43
64614;BME280;51025;37.772;-122.432;2022-10-16T04:32:17;100817.77;;;19.38;38.62
64614;BME280;51025;37.772;-122.432;2022-10-16T04:34:46;100820.50;;;20.24;38.43
64614;BME280;51025;37.772;-122.432;2022-10-16T04:37:14;100815.83;;;19.81;38.45
64614;BME280;51025;37.772;-122.432;2022-10-16T04:39:43;100822.15;;;19.92;38.28
64614;BME280;51025;37.772;-122.432;2022-10-16T04:42:11;100827.80;;;19.81;38.33
64614;BME280;51025;37.772;-122.432;2022-10-16T04:44:40;100834.16;;;19.91;38.12
64614;BME280;51025;37.772;-122.432;2022-10-16T04:47:08;100832.18;;;19.79;38.28
64614;BME280;51025;37.772;-122.432;2022-10-16T04:49:37;100836.15;;;19.90;38.02
64614;BME280;51025;37.772;-122.432;2022-10-16T04:52:06;100839.15;;;19.75;38.15
64614;BME280;51025;37.772;-122.432;2022-10-16T04:54:35;100838.25;;;19.78;38.13
64614;BME280;51025;37.772;-122.432;2022-10-16T04:57:03;100835.45;;;19.82;37.95
64614;BME280;51025;37.772;-122.432;2022-10-16T04:59:32;100838.40;;;19.98;37.67
64614;BME280;51025;37.772;-122.432;2022-10-16T05:02:01;100842.29;;;19.94;37.69
64614;BME280;51025;37.772;-122.432;2022-10-16T05:04:29;100845.11;;;19.70;37.90
64614;BME280;51025;37.772;-122.432;2022-10-16T05:06:57;100846.37;;;19.18;37.98
64614;BME280;51025;37.772;-122.432;2022-10-16T05:09:26;100846.43;;;19.79;37.69
64614;BME280;51025;37.772;-122.432;2022-10-16T05:11:55;100848.56;;;20.27;37.51
64614;BME280;51025;37.772;-122.432;2022-10-16T05:14:23;100848.79;;;19.76;37.61
64614;BME280;51025;37.772;-122.432;2022-10-16T05:16:52;100853.77;;;19.67;37.71
64614;BME280;51025;37.772;-122.432;2022-10-16T05:19:21;100859.18;;;20.09;37.57
64614;BME280;51025;37.772;-122.432;2022-10-16T05:21:49;100865.53;;;19.64;37.63
64614;BME280;51025;37.772;-122.432;2022-10-16T05:24:18;100867.64;;;19.49;37.76
64614;BME280;51025;37.772;-122.432;2022-10-16T05:26:47;100867.56;;;19.82;37.39
64614;BME280;51025;37.772;-122.432;2022-10-16T05:29:15;100866.44;;;19.49;37.72
64614;BME280;51025;37.772;-122.432;2022-10-16T05:31:43;100867.15;;;19.64;37.52
64614;BME280;51025;37.772;-122.432;2022-10-16T05:34:12;100868.49;;;19.60;37.20
64614;BME280;51025;37.772;-122.432;2022-10-16T05:36:40;100868.76;;;19.53;37.60
64614;BME280;51025;37.772;-122.432;2022-10-16T05:39:09;100867.63;;;19.70;37.40
64614;BME280;51025;37.772;-122.432;2022-10-16T05:41:37;100869.25;;;19.67;37.44
64614;BME280;51025;37.772;-122.432;2022-10-16T05:44:06;100869.13;;;19.96;37.30
64614;BME280;51025;37.772;-122.432;2022-10-16T05:46:34;100866.00;;;19.74;37.73
64614;BME280;51025;37.772;-122.432;2022-10-16T05:49:03;100863.26;;;19.67;38.03
64614;BME280;51025;37.772;-122.432;2022-10-16T05:51:32;100860.53;;;20.34;37.70
64614;BME280;51025;37.772;-122.432;2022-10-16T05:54:01;100856.39;;;19.50;37.87
64614;BME280;51025;37.772;-122.432;2022-10-16T05:56:29;100857.35;;;20.23;37.98
64614;BME280;51025;37.772;-122.432;2022-10-16T05:58:58;100856.40;;;19.86;37.97
64614;BME280;51025;37.772;-122.432;2022-10-16T06:01:27;100860.49;;;19.71;38.08
64614;BME280;51025;37.772;-122.432;2022-10-16T06:03:55;100862.28;;;19.92;37.82
64614;BME280;51025;37.772;-122.432;2022-10-16T06:06:26;100864.23;;;19.64;38.06
64614;BME280;51025;37.772;-122.432;2022-10-16T06:08:56;100863.74;;;19.72;37.99
64614;BME280;51025;37.772;-122.432;2022-10-16T06:11:27;100866.19;;;19.63;38.00
64614;BME280;51025;37.772;-122.432;2022-10-16T06:13:57;100867.92;;;19.30;38.00
64614;BME280;51025;37.772;-122.432;2022-10-16T06:16:27;100872.75;;;19.74;37.80
64614;BME280;51025;37.772;-122.432;2022-10-16T06:18:56;100877.21;;;19.64;37.87
64614;BME280;51025;37.772;-122.432;2022-10-16T06:21:25;100877.58;;;19.83;37.63
64614;BME280;51025;37.772;-122.432;2022-10-16T06:23:55;100878.27;;;19.75;37.65
64614;BME280;51025;37.772;-122.432;2022-10-16T06:26:26;100876.81;;;19.12;38.01
64614;BME280;51025;37.772;-122.432;2022-10-16T06:28:56;100875.50;;;19.61;37.77
64614;BME280;51025;37.772;-122.432;2022-10-16T06:31:26;100875.28;;;19.61;37.75
64614;BME280;51025;37.772;-122.432;2022-10-16T06:33:55;100877.24;;;19.92;37.31
64614;BME280;51025;37.772;-122.432;2022-10-16T06:36:26;100876.96;;;19.33;37.54
64614;BME280;51025;37.772;-122.432;2022-10-16T06:38:55;100879.23;;;19.75;37.42
64614;BME280;51025;37.772;-122.432;2022-10-16T06:41:24;100877.68;;;19.50;37.71
64614;BME280;51025;37.772;-122.432;2022-10-16T06:43:53;100878.77;;;19.56;37.61
64614;BME280;51025;37.772;-122.432;2022-10-16T06:46:24;100876.46;;;20.02;37.05
64614;BME280;51025;37.772;-122.432;2022-10-16T06:48:53;100878.11;;;19.53;37.57
64614;BME280;51025;37.772;-122.432;2022-10-16T06:51:22;100876.88;;;19.51;37.54
64614;BME280;51025;37.772;-122.432;2022-10-16T06:53:52;100875.91;;;19.48;37.59
64614;BME280;51025;37.772;-122.432;2022-10-16T06:56:23;100872.25;;;19.48;37.57
64614;BME280;51025;37.772;-122.432;2022-10-16T06:58:52;100865.44;;;19.64;37.34
64614;BME280;51025;37.772;-122.432;2022-10-16T07:01:23;100864.45;;;17.65;37.41
64614;BME280;51025;37.772;-122.432;2022-10-16T07:03:52;100861.29;;;19.92;37.02
64614;BME280;51025;37.772;-122.432;2022-10-16T07:06:23;100862.05;;;19.83;37.02
64614;BME280;51025;37.772;-122.432;2022-10-16T07:08:53;100860.10;;;19.57;37.30
64614;BME280;51025;37.772;-122.432;2022-10-16T07:11:22;100866.10;;;19.40;37.53
64614;BME280;51025;37.772;-122.432;2022-10-16T07:13:51;100870.33;;;19.85;37.01
64614;BME280;51025;37.772;-122.432;2022-10-16T07:16:22;100872.20;;;19.27;37.22
64614;BME280;51025;37.772;-122.432;2022-10-16T07:18:51;100872.00;;;19.41;37.43
64614;BME280;51025;37.772;-122.432;2022-10-16T07:21:21;100874.10;;;19.86;37.29
64614;BME280;51025;37.772;-122.432;2022-10-16T07:23:51;100875.34;;;19.93;37.19
64614;BME280;51025;37.772;-122.432;2022-10-16T07:26:20;100874.95;;;19.36;37.42
64614;BME280;51025;37.772;-122.432;2022-10-16T07:28:49;100878.60;;;19.52;37.22
64614;BME280;51025;37.772;-122.432;2022-10-16T07:31:19;100877.01;;;19.47;37.24
64614;BME280;51025;37.772;-122.432;2022-10-16T07:33:49;100878.53;;;19.63;37.07
64614;BME280;51025;37.772;-122.432;2022-10-16T07:36:18;100883.99;;;19.75;36.89
64614;BME280;51025;37.772;-122.432;2022-10-16T07:38:48;100885.85;;;19.51;37.10
64614;BME280;51025;37.772;-122.432;2022-10-16T07:41:18;100889.81;;;19.81;37.18
64614;BME280;51025;37.772;-122.432;2022-10-16T07:43:48;100895.13;;;19.39;37.25
64614;BME280;51025;37.772;-122.432;2022-10-16T07:46:18;100891.80;;;19.36;37.24
64614;BME280;51025;37.772;-122.432;2022-10-16T07:48:46;100894.02;;;19.36;37.23
64614;BME280;51025;37.772;-122.432;2022-10-16T07:51:16;100890.73;;;19.48;37.48
64614;BME280;51025;37.772;-122.432;2022-10-16T07:53:45;100886.61;;;19.69;36.83
64614;BME280;51025;37.772;-122.432;2022-10-16T07:56:14;100891.31;;;19.48;37.07
64614;BME280;51025;37.772;-122.432;2022-10-16T07:58:43;100889.63;;;19.51;36.99
64614;BME280;51025;37.772;-122.432;2022-10-16T08:01:12;100890.18;;;19.34;37.14
64614;BME280;51025;37.772;-122.432;2022-10-16T08:03:43;100891.58;;;19.36;37.11
64614;BME280;51025;37.772;-122.432;2022-10-16T08:06:11;100882.98;;;19.91;36.83
64614;BME280;51025;37.772;-122.432;2022-10-16T08:08:40;100883.22;;;19.49;36.92
64614;BME280;51025;37.772;-122.432;2022-10-16T08:11:09;100884.38;;;19.45;36.95
64614;BME280;51025;37.772;-122.432;2022-10-16T08:13:38;100888.55;;;19.31;37.09
64614;BME280;51025;37.772;-122.432;2022-10-16T08:16:07;100891.57;;;19.31;37.04
64614;BME280;51025;37.772;-122.432;2022-10-16T08:18:36;100892.63;;;19.45;36.91
64614;BME280;51025;37.772;-122.432;2022-10-16T08:21:06;100899.05;;;19.39;36.95
64614;BME280;51025;37.772;-122.432;2022-10-16T08:23:35;100898.20;;;19.63;36.63
64614;BME280;51025;37.772;-122.432;2022-10-16T08:26:05;100900.40;;;19.43;36.89
64614;BME280;51025;37.772;-122.432;2022-10-16T08:28:35;100901.77;;;19.22;37.09
64614;BME280;51025;37.772;-122.432;2022-10-16T08:31:09;100902.33;;;19.30;36.99
64614;BME280;51025;37.772;-122.432;2022-10-16T08:33:37;100902.83;;;19.96;36.62
64614;BME280;51025;37.772;-122.432;2022-10-16T08:36:07;100898.58;;;19.23;37.06
64614;BME280;51025;37.772;-122.432;2022-10-16T08:38:37;100900.77;;;19.62;37.00
64614;BME280;51025;37.772;-122.432;2022-10-16T08:41:25;100901.81;;;19.56;37.04
64614;BME280;51025;37.772;-122.432;2022-10-16T08:44:12;100900.25;;;19.32;36.93
64614;BME280;51025;37.772;-122.432;2022-10-16T08:46:50;100901.40;;;19.47;36.73
64614;BME280;51025;37.772;-122.432;2022-10-16T08:49:23;100904.53;;;19.44;36.75
64614;BME280;51025;37.772;-122.432;2022-10-16T08:51:53;100910.03;;;19.82;36.73
64614;BME280;51025;37.772;-122.432;2022-10-16T08:54:28;100914.10;;;19.86;36.65
64614;BME280;51025;37.772;-122.432;2022-10-16T08:57:07;100914.18;;;19.26;36.90
64614;BME280;51025;37.772;-122.432;2022-10-16T08:59:37;100919.22;;;19.86;36.63
64614;BME280;51025;37.772;-122.432;2022-10-16T09:02:23;100917.37;;;19.26;36.88
64614;BME280;51025;37.772;-122.432;2022-10-16T09:04:59;100917.30;;;19.36;36.77
64614;BME280;51025;37.772;-122.432;2022-10-16T09:07:35;100919.47;;;19.17;36.97
64614;BME280;51025;37.772;-122.432;2022-10-16T09:10:15;100921.15;;;19.27;36.82
64614;BME280;51025;37.772;-122.432;2022-10-16T09:12:55;100925.32;;;19.19;36.96
64614;BME280;51025;37.772;-122.432;2022-10-16T09:15:33;100931.31;;;19.47;36.63
64614;BME280;51025;37.772;-122.432;2022-10-16T09:18:07;100936.63;;;19.38;36.72
64614;BME280;51025;37.772;-122.432;2022-10-16T09:20:49;100937.48;;;19.37;36.71
64614;BME280;51025;37.772;-122.432;2022-10-16T09:23:21;100936.69;;;19.21;36.88
64614;BME280;51025;37.772;-122.432;2022-10-16T09:25:51;100937.33;;;19.55;36.49
64614;BME280;51025;37.772;-122.432;2022-10-16T09:28:20;100933.14;;;19.67;36.74
64614;BME280;51025;37.772;-122.432;2022-10-16T09:30:49;100933.42;;;19.53;36.87
64614;BME280;51025;37.772;-122.432;2022-10-16T09:33:19;100936.91;;;19.30;36.73
64614;BME280;51025;37.772;-122.432;2022-10-16T09:35:50;100938.12;;;19.74;36.62
64614;BME280;51025;37.772;-122.432;2022-10-16T09:38:26;100936.07;;;19.48;36.54
64614;BME280;51025;37.772;-122.432;2022-10-16T09:40:56;100926.83;;;19.58;36.77
64614;BME280;51025;37.772;-122.432;2022-10-16T09:43:28;100925.22;;;19.63;36.68
64614;BME280;51025;37.772;-122.432;2022-10-16T09:46:02;100928.61;;;19.29;36.70
64614;BME280;51025;37.772;-122.432;2022-10-16T09:48:36;100931.88;;;19.30;36.68
64614;BME280;51025;37.772;-122.432;2022-10-16T09:51:13;100938.74;;;19.48;36.51
64614;BME280;51025;37.772;-122.432;2022-10-16T09:53:46;100936.19;;;19.19;36.79
64614;BME280;51025;37.772;-122.432;2022-10-16T09:56:24;100940.20;;;19.28;36.71
64614;BME280;51025;37.772;-122.432;2022-10-16T09:58:54;100939.15;;;19.56;36.78
64614;BME280;51025;37.772;-122.432;2022-10-16T10:01:27;100941.90;;;19.60;36.74
64614;BME280;51025;37.772;-122.432;2022-10-16T10:03:58;100942.72;;;19.01;36.60
64614;BME280;51025;37.772;-122.432;2022-10-16T10:06:29;100945.77;;;19.49;36.82
64614;BME280;51025;37.772;-122.432;2022-10-16T10:09:02;100945.18;;;19.02;36.93
64614;BME280;51025;37.772;-122.432;2022-10-16T10:11:51;100947.56;;;19.62;36.70
64614;BME280;51025;37.772;-122.432;2022-10-16T10:14:25;100948.87;;;19.15;36.79
64614;BME280;51025;37.772;-122.432;2022-10-16T10:17:11;100949.85;;;19.08;36.85
64614;BME280;51025;37.772;-122.432;2022-10-16T10:19:42;100952.14;;;19.51;36.76
64614;BME280;51025;37.772;-122.432;2022-10-16T10:22:32;100956.00;;;19.19;36.70
64614;BME280;51025;37.772;-122.432;2022-10-16T10:25:23;100954.17;;;19.67;36.52
64614;BME280;51025;37.772;-122.432;2022-10-16T10:28:15;100953.87;;;19.54;36.64
64614;BME280;51025;37.772;-122.432;2022-10-16T10:30:53;100955.60;;;19.26;36.59
64614;BME280;51025;37.772;-122.432;2022-10-16T10:33:30;100958.89;;;19.32;36.41
64614;BME280;51025;37.772;-122.432;2022-10-16T10:36:10;100962.38;;;19.72;36.40
64614;BME280;51025;37.772;-122.432;2022-10-16T10:38:46;100960.82;;;19.04;36.78
64614;BME280;51025;37.772;-122.432;2022-10-16T10:41:37;100961.99;;;19.57;36.52
64614;BME280;51025;37.772;-122.432;2022-10-16T10:44:14;100962.33;;;19.25;36.48
64614;BME280;51025;37.772;-122.432;2022-10-16T10:46:50;100965.75;;;19.58;36.47
64614;BME280;51025;37.772;-122.432;2022-10-16T10:49:32;100966.41;;;19.61;36.43
64614;BME280;51025;37.772;-122.432;2022-10-16T10:52:19;100966.28;;;19.16;36.56
64614;BME280;51025;37.772;-122.432;2022-10-16T10:55:06;100967.30;;;19.03;36.67
64614;BME280;51025;37.772;-122.432;2022-10-16T10:57:41;100969.48;;;19.04;36.66
64614;BME280;51025;37.772;-122.432;2022-10-16T11:00:23;100971.36;;;19.75;36.24
64614;BME280;51025;37.772;-122.432;2022-10-16T11:03:05;100965.95;;;19.23;36.38
64614;BME280;51025;37.772;-122.432;2022-10-16T11:05:42;100966.74;;;19.69;36.27
64614;BME280;51025;37.772;-122.432;2022-10-16T11:08:18;100967.96;;;19.21;36.44
64614;BME280;51025;37.772;-122.432;2022-10-16T11:10:52;100974.00;;;19.05;36.58
64614;BME280;51025;37.772;-122.432;2022-10-16T11:13:31;100974.12;;;19.11;36.50
64614;BME280;51025;37.772;-122.432;2022-10-16T11:16:10;100977.28;;;19.62;36.32
64614;BME280;51025;37.772;-122.432;2022-10-16T11:18:49;100983.77;;;19.57;36.38
64614;BME280;51025;37.772;-122.432;2022-10-16T11:21:21;100989.75;;;19.42;36.55
64614;BME280;51025;37.772;-122.432;2022-10-16T11:23:55;100988.71;;;19.69;36.22
64614;BME280;51025;37.772;-122.432;2022-10-16T11:26:29;100991.48;;;19.50;36.44
64614;BME280;51025;37.772;-122.432;2022-10-16T11:29:01;100993.42;;;19.52;36.37
64614;BME280;51025;37.772;-122.432;2022-10-16T11:31:37;100992.69;;;19.32;36.63
64614;BME280;51025;37.772;-122.432;2022-10-16T11:34:12;100987.55;;;19.30;36.27
64614;BME280;51025;37.772;-122.432;2022-10-16T11:36:46;100987.62;;;19.11;36.44
64614;BME280;51025;37.772;-122.432;2022-10-16T11:39:21;100989.76;;;19.11;36.44
64614;BME280;51025;37.772;-122.432;2022-10-16T11:41:53;100989.50;;;19.45;36.51
64614;BME280;51025;37.772;-122.432;2022-10-16T11:44:38;100991.48;;;18.90;36.73
64614;BME280;51025;37.772;-122.432;2022-10-16T11:47:19;100995.69;;;19.09;36.51
64614;BME280;51025;37.772;-122.432;2022-10-16T11:49:57;101001.19;;;19.95;36.37
64614;BME280;51025;37.772;-122.432;2022-10-16T11:52:31;101003.63;;;19.22;36.35
64614;BME280;51025;37.772;-122.432;2022-10-16T11:55:05;101009.13;;;19.17;36.38
64614;BME280;51025;37.772;-122.432;2022-10-16T11:57:42;101009.10;;;19.13;36.37
64614;BME280;51025;37.772;-122.432;2022-10-16T12:00:20;101009.13;;;19.36;36.54
64614;BME280;51025;37.772;-122.432;2022-10-16T12:02:57;101010.21;;;19.34;36.55
64614;BME280;51025;37.772;-122.432;2022-10-16T12:05:38;101009.10;;;19.09;36.41
64614;BME280;51025;37.772;-122.432;2022-10-16T12:08:14;101006.38;;;19.59;36.24
64614;BME280;51025;37.772;-122.432;2022-10-16T12:10:46;101010.20;;;19.34;36.54
64614;BME280;51025;37.772;-122.432;2022-10-16T12:13:32;101015.29;;;19.49;36.33
64614;BME280;51025;37.772;-122.432;2022-10-16T12:16:19;101018.18;;;19.21;36.26
64614;BME280;51025;37.772;-122.432;2022-10-16T12:18:50;101019.73;;;19.51;36.26
64614;BME280;51025;37.772;-122.432;2022-10-16T12:21:32;101022.36;;;19.36;36.39
64614;BME280;51025;37.772;-122.432;2022-10-16T12:24:03;101021.69;;;19.29;36.53
64614;BME280;51025;37.772;-122.432;2022-10-16T12:26:39;101023.69;;;19.17;36.22
64614;BME280;51025;37.772;-122.432;2022-10-16T12:29:22;101021.81;;;19.34;36.04
64614;BME280;51025;37.772;-122.432;2022-10-16T12:31:51;101024.17;;;19.43;36.28
64614;BME280;51025;37.772;-122.432;2022-10-16T12:34:26;101025.75;;;19.33;36.38
64614;BME280;51025;37.772;-122.432;2022-10-16T12:36:56;101030.84;;;19.21;36.53
64614;BME280;51025;37.772;-122.432;2022-10-16T12:39:36;101033.62;;;19.48;36.25
64614;BME280;51025;37.772;-122.432;2022-10-16T12:42:19;101034.22;;;19.01;36.40
64614;BME280;51025;37.772;-122.432;2022-10-16T12:44:48;101036.67;;;19.44;36.25